createdAt,value
2018-03-21T00:01:48.114Z,94935.46
2018-03-21T00:04:16.597Z,94934.86
2018-03-21T00:06:45.090Z,94933.16
2018-03-21T00:09:13.562Z,94930.42
2018-03-21T00:11:42.142Z,94924.31
2018-03-21T00:14:10.518Z,94924.12
2018-03-21T00:16:38.997Z,94931.98
2018-03-21T00:19:07.621Z,94930.13
2018-03-21T00:21:36.304Z,94930.02
2018-03-21T00:24:04.644Z,94923.55
2018-03-21T00:26:32.921Z,94920.11
2018-03-21T00:29:01.609Z,94919.55
2018-03-21T00:31:29.798Z,94913.91
2018-03-21T00:33:58.366Z,94902.41
2018-03-21T00:36:27.047Z,94898.30
2018-03-21T00:38:55.414Z,94905.28
2018-03-21T00:41:23.905Z,94895.80
2018-03-21T00:43:52.490Z,94908.05
2018-03-21T00:46:20.970Z,94902.98
2018-03-21T00:48:49.445Z,94893.60
2018-03-21T00:51:17.811Z,94886.29
2018-03-21T00:53:46.216Z,94881.59
2018-03-21T00:56:14.789Z,94872.40
2018-03-21T00:58:43.265Z,94862.92
2018-03-21T01:01:11.646Z,94867.86
2018-03-21T01:03:40.236Z,94873.93
2018-03-21T01:06:08.694Z,94878.84
2018-03-21T01:08:37.190Z,94881.94
2018-03-21T01:11:05.665Z,94873.16
2018-03-21T01:13:34.136Z,94871.25
2018-03-21T01:16:02.532Z,94873.34
2018-03-21T01:18:31.215Z,94860.40
2018-03-21T01:20:59.803Z,94865.11
2018-03-21T01:23:28.080Z,94875.09
2018-03-21T01:25:56.559Z,94881.91
2018-03-21T01:28:25.232Z,94883.33
2018-03-21T01:30:53.763Z,94886.42
2018-03-21T01:33:21.990Z,94893.14
2018-03-21T01:35:50.426Z,94890.76
2018-03-21T01:38:19.201Z,94901.59
2018-03-21T01:40:47.940Z,94907.23
2018-03-21T01:43:16.326Z,94905.56
2018-03-21T01:45:44.689Z,94906.60
2018-03-21T01:48:13.076Z,94910.11
2018-03-21T01:50:41.657Z,94896.87
2018-03-21T01:53:12.180Z,94898.36
2018-03-21T01:55:40.575Z,94903.73
2018-03-21T01:58:09.258Z,94904.45
2018-03-21T02:00:38.244Z,94903.99
2018-03-21T02:03:06.508Z,94904.48
2018-03-21T02:05:35.110Z,94899.05
2018-03-21T02:08:03.390Z,94910.24
2018-03-21T02:10:31.949Z,94919.69
2018-03-21T02:13:00.548Z,94908.94
2018-03-21T02:15:29.232Z,94903.22
2018-03-21T02:17:57.954Z,94896.78
2018-03-21T02:20:26.117Z,94897.58
2018-03-21T02:22:54.878Z,94905.88
2018-03-21T02:25:23.154Z,94902.80
2018-03-21T02:27:51.642Z,94905.01
2018-03-21T02:30:20.015Z,94897.98
2018-03-21T02:32:48.388Z,94894.68
2018-03-21T02:35:16.666Z,94901.29
2018-03-21T02:37:44.944Z,94902.96
2018-03-21T02:40:13.108Z,94898.76
2018-03-21T02:42:41.507Z,94894.67
2018-03-21T02:45:10.376Z,94894.36
2018-03-21T02:47:38.967Z,94899.20
2018-03-21T02:50:07.431Z,94902.80
2018-03-21T02:52:35.674Z,94894.08
2018-03-21T02:55:04.301Z,94895.24
2018-03-21T02:57:32.668Z,94903.80
2018-03-21T03:00:00.976Z,94892.73
2018-03-21T03:02:29.950Z,94898.97
2018-03-21T03:04:58.945Z,94898.50
2018-03-21T03:07:27.641Z,94901.36
2018-03-21T03:09:55.908Z,94902.71
2018-03-21T03:12:24.386Z,94911.22
2018-03-21T03:14:52.867Z,94913.91
2018-03-21T03:17:20.994Z,94907.50
2018-03-21T03:19:49.616Z,94911.09
2018-03-21T03:22:18.139Z,94919.55
2018-03-21T03:24:47.181Z,94912.22
2018-03-21T03:27:15.569Z,94916.59
2018-03-21T03:29:44.154Z,94907.06
2018-03-21T03:32:12.732Z,94911.02
2018-03-21T03:34:41.209Z,94911.05
2018-03-21T03:37:09.600Z,94914.11
2018-03-21T03:39:38.286Z,94916.02
2018-03-21T03:42:06.762Z,94927.34
2018-03-21T03:44:35.245Z,94938.42
2018-03-21T03:47:03.715Z,94939.72
2018-03-21T03:49:31.997Z,94859.94
2018-03-21T03:52:00.478Z,94942.19
2018-03-21T03:54:28.846Z,94940.52
2018-03-21T03:56:57.337Z,94925.84
2018-03-21T03:59:25.658Z,94930.73
2018-03-21T04:01:54.298Z,94925.06
2018-03-21T04:04:23.085Z,94928.16
2018-03-21T04:06:51.519Z,94934.45
2018-03-21T04:09:19.846Z,94937.24
2018-03-21T04:11:48.521Z,94941.47
2018-03-21T04:14:16.691Z,94938.98
2018-03-21T04:16:45.077Z,94931.16
2018-03-21T04:19:13.662Z,94929.92
2018-03-21T04:21:42.065Z,94953.08
2018-03-21T04:24:10.617Z,94938.55
2018-03-21T04:26:39.216Z,94939.52
2018-03-21T04:29:07.876Z,94932.56
2018-03-21T04:31:37.498Z,94918.31
2018-03-21T04:34:05.643Z,94915.88
2018-03-21T04:36:34.253Z,94920.55
2018-03-21T04:39:02.733Z,94922.08
2018-03-21T04:41:31.303Z,94913.34
2018-03-21T04:43:59.901Z,94909.08
2018-03-21T04:46:28.484Z,94907.16
2018-03-21T04:48:57.033Z,94913.75
2018-03-21T04:51:25.633Z,94924.10
2018-03-21T04:53:54.180Z,94928.36
2018-03-21T04:56:22.815Z,94939.73
2018-03-21T04:58:51.137Z,94933.95
2018-03-21T05:01:19.773Z,94933.83
2018-03-21T05:03:48.665Z,94928.11
2018-03-21T05:06:17.353Z,94933.39
2018-03-21T05:08:45.638Z,94938.22
2018-03-21T05:11:14.413Z,94938.59
2018-03-21T05:13:42.797Z,94933.63
2018-03-21T05:16:11.001Z,94934.80
2018-03-21T05:18:39.849Z,94930.83
2018-03-21T05:21:08.332Z,94941.46
2018-03-21T05:23:37.856Z,94941.97
2018-03-21T05:26:06.631Z,94949.97
2018-03-21T05:28:35.408Z,94955.88
2018-03-21T05:31:03.844Z,94961.27
2018-03-21T05:33:32.278Z,94964.38
2018-03-21T05:36:00.963Z,94970.28
2018-03-21T05:38:29.648Z,94985.31
2018-03-21T05:40:58.142Z,94997.41
2018-03-21T05:43:26.810Z,94993.63
2018-03-21T05:45:55.291Z,95001.11
2018-03-21T05:48:23.315Z,95004.54
2018-03-21T05:50:51.360Z,95003.63
2018-03-21T05:53:19.813Z,95003.16
2018-03-21T05:55:48.326Z,95007.80
2018-03-21T05:58:16.669Z,95014.13
2018-03-21T06:00:44.598Z,95019.92
2018-03-21T06:03:13.109Z,95014.50
2018-03-21T06:05:41.597Z,95020.09
2018-03-21T06:08:10.277Z,95031.16
2018-03-21T06:10:38.866Z,95032.98
2018-03-21T06:13:07.454Z,95036.19
2018-03-21T06:15:35.827Z,95024.98
2018-03-21T06:18:04.412Z,95035.69
2018-03-21T06:20:32.999Z,95027.00
2018-03-21T06:23:01.271Z,95030.70
2018-03-21T06:25:29.850Z,95035.88
2018-03-21T06:27:58.333Z,95036.63
2018-03-21T06:30:26.717Z,95048.69
2018-03-21T06:32:54.980Z,95040.50
2018-03-21T06:35:23.264Z,95048.09
2018-03-21T06:37:51.845Z,95047.49
2018-03-21T06:40:20.362Z,95037.31
2018-03-21T06:42:48.800Z,95034.47
2018-03-21T06:45:17.381Z,95033.80
2018-03-21T06:47:45.851Z,95033.89
2018-03-21T06:50:14.452Z,95027.83
2018-03-21T06:52:43.145Z,95033.36
2018-03-21T06:55:12.075Z,95003.70
2018-03-21T06:57:40.626Z,95038.08
2018-03-21T07:00:09.105Z,95038.33
2018-03-21T07:02:37.544Z,95042.03
2018-03-21T07:05:06.063Z,95049.22
2018-03-21T07:07:34.937Z,95054.06
2018-03-21T07:10:03.527Z,95040.15
2018-03-21T07:12:32.206Z,95044.88
2018-03-21T07:15:12.416Z,95049.94
2018-03-21T07:17:41.071Z,95041.33
2018-03-21T07:20:10.186Z,95044.42
2018-03-21T07:22:38.439Z,95040.23
2018-03-21T07:25:07.310Z,95045.50
2018-03-21T07:27:36.057Z,95052.04
2018-03-21T07:30:04.582Z,95053.66
2018-03-21T07:32:32.904Z,95060.58
2018-03-21T07:35:01.871Z,95066.87
2018-03-21T07:37:30.247Z,95065.37
2018-03-21T07:39:58.703Z,95066.12
2018-03-21T07:42:26.816Z,95061.48
2018-03-21T07:44:55.350Z,95042.48
2018-03-21T07:47:23.735Z,95040.95
2018-03-21T07:49:52.221Z,95055.30
2018-03-21T07:52:20.598Z,95058.48
2018-03-21T07:54:49.070Z,95053.40
2018-03-21T07:57:17.450Z,95050.27
2018-03-21T07:59:45.737Z,95050.08
2018-03-21T08:02:14.455Z,95047.03
2018-03-21T08:04:43.396Z,95054.83
2018-03-21T08:07:11.767Z,95048.72
2018-03-21T08:09:40.280Z,95054.48
2018-03-21T08:12:09.249Z,95060.23
2018-03-21T08:14:37.833Z,95062.13
2018-03-21T08:17:06.385Z,95069.81
2018-03-21T08:19:34.795Z,95066.75
2018-03-21T08:22:03.998Z,95072.55
2018-03-21T08:24:32.298Z,95074.49
2018-03-21T08:27:00.852Z,95071.16
2018-03-21T08:29:29.333Z,95052.16
2018-03-21T08:31:57.901Z,95051.72
2018-03-21T08:34:26.521Z,95048.47
2018-03-21T08:36:55.180Z,95052.04
2018-03-21T08:39:23.469Z,95060.84
2018-03-21T08:41:52.040Z,95050.41
2018-03-21T08:44:20.526Z,95056.98
2018-03-21T08:46:48.884Z,95054.77
2018-03-21T08:49:17.384Z,95038.79
2018-03-21T08:51:45.786Z,95045.44
2018-03-21T08:54:14.138Z,95050.07
2018-03-21T08:56:42.817Z,95032.45
2018-03-21T08:59:11.026Z,95041.48
2018-03-21T09:01:39.582Z,95040.09
2018-03-21T09:04:07.772Z,95043.10
2018-03-21T09:06:36.027Z,95046.41
2018-03-21T09:09:04.401Z,95053.79
2018-03-21T09:11:32.921Z,95073.56
2018-03-21T09:14:01.674Z,95079.16
2018-03-21T09:16:30.182Z,95056.23
2018-03-21T09:18:58.842Z,95055.42
2018-03-21T09:21:27.464Z,95045.27
2018-03-21T09:23:55.802Z,95010.73
2018-03-21T09:26:24.064Z,95023.53
2018-03-21T09:28:52.353Z,95024.75
2018-03-21T09:31:21.004Z,95010.14
2018-03-21T09:33:49.508Z,95018.96
2018-03-21T09:36:17.998Z,95027.47
2018-03-21T09:38:46.586Z,95027.78
2018-03-21T09:41:15.455Z,95023.47
2018-03-21T09:43:43.850Z,95022.16
2018-03-21T09:46:12.438Z,95017.14
2018-03-21T09:48:41.047Z,95023.41
2018-03-21T09:51:09.184Z,95015.70
2018-03-21T09:53:37.569Z,95010.54
2018-03-21T09:56:06.131Z,95004.25
2018-03-21T09:58:34.734Z,94972.98
2018-03-21T10:01:03.420Z,94968.90
2018-03-21T10:03:31.780Z,94977.52
2018-03-21T10:06:00.182Z,94973.22
2018-03-21T10:08:28.964Z,94973.03
2018-03-21T10:10:57.218Z,94957.39
2018-03-21T10:13:25.511Z,94957.95
2018-03-21T10:15:54.024Z,94961.29
2018-03-21T10:18:22.520Z,94968.33
2018-03-21T10:20:51.054Z,94989.67
2018-03-21T10:23:19.595Z,94994.33
2018-03-21T10:25:47.808Z,95000.73
2018-03-21T10:28:16.304Z,94997.70
2018-03-21T10:30:44.672Z,94995.39
2018-03-21T10:33:13.153Z,94999.46
2018-03-21T10:35:41.934Z,94988.25
2018-03-21T10:38:10.041Z,94990.18
2018-03-21T10:40:38.904Z,95000.33
2018-03-21T10:43:07.389Z,95003.98
2018-03-21T10:45:35.854Z,94998.41
2018-03-21T10:48:04.527Z,94994.13
2018-03-21T10:50:33.021Z,94989.02
2018-03-21T10:53:01.202Z,94985.63
2018-03-21T10:55:29.678Z,94975.88
2018-03-21T10:57:58.050Z,94987.27
2018-03-21T11:00:26.541Z,94983.97
2018-03-21T11:03:00.937Z,94996.25
2018-03-21T11:05:29.244Z,95005.25
2018-03-21T11:07:58.012Z,95007.27
2018-03-21T11:10:26.488Z,95007.37
2018-03-21T11:12:55.297Z,95001.30
2018-03-21T11:15:23.768Z,95015.73
2018-03-21T11:17:52.364Z,95015.77
2018-03-21T11:20:20.942Z,95018.98
2018-03-21T11:22:49.406Z,95024.11
2018-03-21T11:25:17.584Z,95026.73
2018-03-21T11:27:46.792Z,95027.33
2018-03-21T11:30:15.900Z,95026.87
2018-03-21T11:32:44.887Z,95016.09
2018-03-21T11:35:13.982Z,95019.69
2018-03-21T11:37:42.606Z,95026.55
2018-03-21T11:40:12.404Z,95006.17
2018-03-21T11:42:43.364Z,95008.42
2018-03-21T11:45:12.185Z,95003.86
2018-03-21T11:47:40.524Z,95008.37
2018-03-21T11:50:09.043Z,95030.00
2018-03-21T11:52:37.635Z,95013.73
2018-03-21T11:55:05.902Z,95013.45
2018-03-21T11:57:34.486Z,95020.62
2018-03-21T12:00:02.950Z,95010.79
2018-03-21T12:02:31.450Z,95007.55
2018-03-21T12:05:00.040Z,95000.25
2018-03-21T12:07:28.511Z,95006.22
2018-03-21T12:09:56.780Z,94989.22
2018-03-21T12:12:25.262Z,94992.42
2018-03-21T12:14:53.637Z,94999.70
2018-03-21T12:17:21.925Z,94988.16
2018-03-21T12:19:50.812Z,94991.45
2018-03-21T12:22:19.100Z,94995.75
2018-03-21T12:24:47.261Z,94989.75
2018-03-21T12:27:15.793Z,94992.50
2018-03-21T12:29:44.531Z,94996.91
2018-03-21T12:32:12.448Z,95001.21
2018-03-21T12:34:40.380Z,94949.96
2018-03-21T12:37:08.947Z,95000.89
2018-03-21T12:39:36.884Z,95004.17
2018-03-21T12:42:04.830Z,95001.06
2018-03-21T12:44:32.780Z,95008.33
2018-03-21T12:47:00.750Z,95016.22
2018-03-21T12:49:28.731Z,95016.77
2018-03-21T12:51:56.655Z,95007.57
2018-03-21T12:54:25.021Z,95013.22
2018-03-21T12:56:53.494Z,95009.13
2018-03-21T12:59:21.878Z,94999.06
2018-03-21T13:01:50.268Z,95005.86
2018-03-21T13:04:18.859Z,94997.81
2018-03-21T13:06:47.330Z,94999.69
2018-03-21T13:09:15.948Z,94996.23
2018-03-21T13:11:44.290Z,94995.44
2018-03-21T13:14:12.906Z,94997.27
2018-03-21T13:16:41.453Z,94986.60
2018-03-21T13:19:09.834Z,94981.19
2018-03-21T13:21:38.219Z,94976.70
2018-03-21T13:24:06.685Z,94983.34
2018-03-21T13:26:34.967Z,94980.30
2018-03-21T13:29:03.245Z,94985.11
2018-03-21T13:31:31.397Z,94988.64
2018-03-21T13:33:59.993Z,94981.89
2018-03-21T13:36:28.578Z,94979.91
2018-03-21T13:38:57.454Z,94974.27
2018-03-21T13:41:25.858Z,94959.03
2018-03-21T13:43:54.431Z,94954.38
2018-03-21T13:46:23.120Z,94956.40
2018-03-21T13:48:51.273Z,94935.83
2018-03-21T13:51:19.666Z,94931.14
2018-03-21T13:53:48.540Z,94924.63
2018-03-21T13:56:16.938Z,94918.84
2018-03-21T13:58:45.214Z,94921.73
2018-03-21T14:01:13.572Z,94926.69
2018-03-21T14:03:42.077Z,94933.15
2018-03-21T14:06:10.445Z,94933.84
2018-03-21T14:08:38.614Z,94935.93
2018-03-21T14:11:06.906Z,94939.67
2018-03-21T14:13:35.174Z,94941.31
2018-03-21T14:16:03.848Z,94948.24
2018-03-21T14:18:32.526Z,94959.61
2018-03-21T14:21:00.916Z,94962.01
2018-03-21T14:23:29.648Z,94960.70
2018-03-21T14:25:58.278Z,94955.33
2018-03-21T14:28:26.769Z,94975.73
2018-03-21T14:30:55.598Z,94976.38
2018-03-21T14:33:23.830Z,94972.58
2018-03-21T14:35:52.309Z,94987.47
2018-03-21T14:38:20.997Z,95001.72
2018-03-21T14:40:49.368Z,95000.94
2018-03-21T14:43:17.759Z,95010.16
2018-03-21T14:45:46.219Z,95015.89
2018-03-21T14:48:14.818Z,95007.41
2018-03-21T14:50:43.298Z,95011.10
2018-03-21T14:53:11.661Z,94999.70
2018-03-21T14:55:40.054Z,95003.02
2018-03-21T14:58:08.381Z,95003.89
2018-03-21T15:00:36.808Z,95003.16
2018-03-21T15:03:05.390Z,95017.77
2018-03-21T15:05:33.601Z,95019.13
2018-03-21T15:08:02.248Z,95018.36
2018-03-21T15:10:30.630Z,95024.80
2018-03-21T15:12:59.102Z,95026.79
2018-03-21T15:15:27.481Z,95022.36
2018-03-21T15:17:55.952Z,95019.19
2018-03-21T15:20:24.446Z,95015.34
2018-03-21T15:22:53.139Z,95003.06
2018-03-21T15:25:22.121Z,94998.08
2018-03-21T15:27:50.897Z,94995.32
2018-03-21T15:30:19.194Z,94996.27
2018-03-21T15:32:47.561Z,94994.70
2018-03-21T15:35:15.966Z,95013.34
2018-03-21T15:37:44.530Z,95021.68
2018-03-21T15:40:13.263Z,95016.83
2018-03-21T15:42:41.489Z,95014.20
2018-03-21T15:45:09.862Z,95014.86
2018-03-21T15:47:38.294Z,95024.44
2018-03-21T15:50:06.730Z,95017.34
2018-03-21T15:52:35.088Z,95014.84
2018-03-21T15:55:03.381Z,95030.11
2018-03-21T15:57:31.706Z,95039.15
2018-03-21T16:00:00.143Z,95035.65
2018-03-21T16:02:28.618Z,95046.72
2018-03-21T16:04:56.880Z,95030.78
2018-03-21T16:07:25.369Z,95039.15
2018-03-21T16:09:53.789Z,95044.41
2018-03-21T16:12:22.433Z,95040.09
2018-03-21T16:14:50.809Z,95042.26
2018-03-21T16:17:19.173Z,95041.08
2018-03-21T16:19:47.677Z,95047.91
2018-03-21T16:22:16.050Z,95036.94
2018-03-21T16:24:44.436Z,95034.73
2018-03-21T16:27:13.004Z,95020.62
2018-03-21T16:29:41.393Z,95024.97
2018-03-21T16:32:10.070Z,95010.86
2018-03-21T16:34:38.563Z,95010.33
2018-03-21T16:37:07.233Z,95004.64
2018-03-21T16:39:35.522Z,95018.75
2018-03-21T16:42:03.913Z,95018.94
2018-03-21T16:44:32.200Z,95035.36
2018-03-21T16:47:00.883Z,95046.52
2018-03-21T16:49:29.214Z,95049.84
2018-03-21T16:51:57.609Z,95065.12
2018-03-21T16:54:26.195Z,95062.11
2018-03-21T16:56:54.656Z,95062.95
2018-03-21T16:59:23.357Z,95065.50
2018-03-21T17:01:52.041Z,95065.47
2018-03-21T17:04:20.303Z,95076.64
2018-03-21T17:06:48.797Z,95080.91
2018-03-21T17:09:17.494Z,95079.37
2018-03-21T17:11:45.753Z,95080.98
2018-03-21T17:14:14.228Z,95079.97
2018-03-21T17:16:42.704Z,95070.43
2018-03-21T17:19:11.099Z,95068.83
2018-03-21T17:21:39.682Z,95070.64
2018-03-21T17:24:08.015Z,95079.23
2018-03-21T17:26:36.542Z,95086.55
2018-03-21T17:29:05.326Z,95083.97
2018-03-21T17:31:33.814Z,95073.35
2018-03-21T17:34:02.182Z,95079.80
2018-03-21T17:36:30.563Z,95093.47
2018-03-21T17:38:59.152Z,95080.48
2018-03-21T17:41:27.633Z,95070.13
2018-03-21T17:43:56.115Z,95072.97
2018-03-21T17:46:24.703Z,95069.59
2018-03-21T17:48:53.382Z,95085.30
2018-03-21T17:51:22.352Z,95093.32
2018-03-21T17:53:50.753Z,95094.84
2018-03-21T17:56:19.226Z,95109.02
2018-03-21T17:58:47.818Z,95110.23
2018-03-21T18:01:16.296Z,95110.72
2018-03-21T18:03:44.753Z,95113.34
2018-03-21T18:06:13.233Z,95120.81
2018-03-21T18:08:41.841Z,95114.22
2018-03-21T18:11:10.414Z,95114.33
2018-03-21T18:13:38.803Z,95112.73
2018-03-21T18:16:07.184Z,95111.84
2018-03-21T18:18:35.800Z,95103.94
2018-03-21T18:21:04.338Z,95102.52
2018-03-21T18:23:33.029Z,95104.03
2018-03-21T18:26:01.194Z,95089.41
2018-03-21T18:28:29.573Z,95102.09
2018-03-21T18:30:58.226Z,95119.10
2018-03-21T18:33:26.648Z,95127.84
2018-03-21T18:35:55.121Z,95125.19
2018-03-21T18:38:23.600Z,95131.03
2018-03-21T18:40:52.078Z,95133.09
2018-03-21T18:43:20.607Z,95139.48
2018-03-21T18:45:49.126Z,95138.59
2018-03-21T18:48:17.722Z,95141.25
2018-03-21T18:50:45.984Z,95138.20
2018-03-21T18:53:14.994Z,95144.28
2018-03-21T18:55:43.269Z,95149.93
2018-03-21T18:58:12.059Z,95143.59
2018-03-21T19:00:40.405Z,95146.98
2018-03-21T19:03:08.914Z,95154.19
2018-03-21T19:05:37.397Z,95160.87
2018-03-21T19:08:05.865Z,95167.25
2018-03-21T19:10:34.364Z,95169.45
2018-03-21T19:13:03.241Z,95176.95
2018-03-21T19:15:31.425Z,95179.36
2018-03-21T19:18:00.002Z,95179.98
2018-03-21T19:20:28.891Z,95181.71
2018-03-21T19:22:57.387Z,95178.69
2018-03-21T19:25:25.849Z,95190.05
2018-03-21T19:27:54.434Z,95195.81
2018-03-21T19:30:22.797Z,95197.70
2018-03-21T19:32:51.608Z,95201.81
2018-03-21T19:35:20.081Z,95200.80
2018-03-21T19:37:48.713Z,95197.41
2018-03-21T19:40:17.042Z,95199.87
2018-03-21T19:42:45.929Z,95198.42
2018-03-21T19:45:14.415Z,95201.72
2018-03-21T19:47:42.993Z,95200.30
2018-03-21T19:50:11.985Z,95190.25
2018-03-21T19:52:40.582Z,95193.98
2018-03-21T19:55:08.905Z,95204.39
2018-03-21T19:57:37.425Z,95203.19
2018-03-21T20:00:06.015Z,95207.05
2018-03-21T20:02:34.702Z,95208.66
2018-03-21T20:05:03.179Z,95202.94
2018-03-21T20:07:31.563Z,95202.38
2018-03-21T20:09:59.918Z,95206.73
2018-03-21T20:12:28.651Z,95202.20
2018-03-21T20:14:57.102Z,95201.28
2018-03-21T20:17:25.994Z,95204.58
2018-03-21T20:19:54.568Z,95208.06
2018-03-21T20:22:23.059Z,95216.09
2018-03-21T20:24:51.640Z,95211.98
2018-03-21T20:27:20.063Z,95215.25
2018-03-21T20:29:48.597Z,95220.70
2018-03-21T20:32:16.990Z,95217.88
2018-03-21T20:34:45.657Z,95209.41
2018-03-21T20:37:14.147Z,95211.60
2018-03-21T20:39:42.520Z,95218.62
2018-03-21T20:42:11.097Z,95216.27
2018-03-21T20:44:39.402Z,95215.06
2018-03-21T20:47:07.985Z,95208.39
2018-03-21T20:49:36.641Z,95212.69
2018-03-21T20:52:04.818Z,95212.88
2018-03-21T20:54:33.296Z,95208.08
2018-03-21T20:57:01.586Z,95212.47
2018-03-21T20:59:30.158Z,95209.97
2018-03-21T21:01:58.823Z,95204.78
2018-03-21T21:04:27.322Z,95202.87
2018-03-21T21:06:55.702Z,95206.16
2018-03-21T21:09:24.198Z,95203.58
2018-03-21T21:11:52.866Z,95209.70
2018-03-21T21:14:21.252Z,95204.09
2018-03-21T21:16:49.824Z,95206.81
2018-03-21T21:19:18.316Z,95212.13
2018-03-21T21:21:46.786Z,95214.53
2018-03-21T21:24:15.166Z,95216.09
2018-03-21T21:26:43.474Z,95215.61
2018-03-21T21:29:12.234Z,95217.43
2018-03-21T21:31:40.914Z,95219.59
2018-03-21T21:34:09.378Z,95228.13
2018-03-21T21:36:38.485Z,95222.53
2018-03-21T21:39:06.870Z,95224.66
2018-03-21T21:41:35.287Z,95219.28
2018-03-21T21:44:03.620Z,95212.83
2018-03-21T21:46:31.569Z,95217.73
2018-03-21T21:48:59.475Z,95214.02
2018-03-21T21:51:27.482Z,95211.23
2018-03-21T21:53:55.502Z,95219.58
2018-03-21T21:56:23.430Z,95220.30
2018-03-21T21:58:51.374Z,95219.59
2018-03-21T22:01:19.819Z,95218.75
2018-03-21T22:03:47.749Z,95222.13
2018-03-21T22:06:15.711Z,95219.81
2018-03-21T22:08:43.706Z,95220.66
2018-03-21T22:11:11.736Z,95207.65
2018-03-21T22:13:39.722Z,95209.56
2018-03-21T22:16:07.648Z,95206.34
2018-03-21T22:18:35.676Z,95215.93
2018-03-21T22:21:03.644Z,95209.75
2018-03-21T22:23:32.253Z,95210.23
2018-03-21T22:26:00.631Z,95221.41
2018-03-21T22:28:28.628Z,95216.75
2018-03-21T22:30:56.665Z,95217.29
2018-03-21T22:33:24.688Z,95215.60
2018-03-21T22:35:52.630Z,95210.98
2018-03-21T22:38:20.980Z,95201.31
2018-03-21T22:40:48.930Z,95205.72
2018-03-21T22:43:17.099Z,95203.33
2018-03-21T22:45:45.469Z,95207.06
2018-03-21T22:48:13.973Z,95206.16
2018-03-21T22:50:42.349Z,95212.64
2018-03-21T22:53:10.833Z,95216.70
2018-03-21T22:55:39.519Z,95211.50
2018-03-21T22:58:07.835Z,95214.32
2018-03-21T23:00:36.273Z,95085.64
2018-03-21T23:03:05.063Z,95196.33
2018-03-21T23:05:33.332Z,95202.86
2018-03-21T23:08:02.218Z,95221.45
2018-03-21T23:10:30.522Z,95210.98
2018-03-21T23:12:58.770Z,95205.04
2018-03-21T23:15:27.261Z,95212.58
2018-03-21T23:17:55.723Z,95215.20
2018-03-21T23:20:24.330Z,95214.34
2018-03-21T23:22:52.913Z,95205.73
2018-03-21T23:25:20.825Z,95202.52
2018-03-21T23:27:48.775Z,95204.22
2018-03-21T23:30:16.770Z,95211.34
2018-03-21T23:32:44.697Z,95216.17
2018-03-21T23:35:12.626Z,95206.74
2018-03-21T23:37:40.659Z,95197.01
2018-03-21T23:40:09.052Z,95204.83
2018-03-21T23:42:37.017Z,95197.89
2018-03-21T23:45:05.018Z,95197.47
2018-03-21T23:47:32.982Z,95193.42
2018-03-21T23:50:00.999Z,95192.30
2018-03-21T23:52:28.927Z,95184.98
2018-03-21T23:54:56.913Z,95190.02
2018-03-21T23:57:24.892Z,95186.36
2018-03-21T23:59:52.909Z,95186.13
